sensor_id;sensor_type;location;lat;lon;timestamp;P1;durP1;ratioP1;P2;durP2;ratioP2
22752;SDS011;11543;43.144;24.684;2023-02-11T00:02:01;94.68;;;46.60;;
22752;SDS011;11543;43.144;24.684;2023-02-11T00:04:28;90.05;;;48.22;;
22752;SDS011;11543;43.144;24.684;2023-02-11T00:06:54;83.78;;;46.00;;
22752;SDS011;11543;43.144;24.684;2023-02-11T00:09:19;84.40;;;44.60;;
22752;SDS011;11543;43.144;24.684;2023-02-11T00:11:45;81.13;;;42.42;;
22752;SDS011;11543;43.144;24.684;2023-02-11T00:14:10;80.07;;;42.50;;
22752;SDS011;11543;43.144;24.684;2023-02-11T00:16:36;78.15;;;42.25;;
22752;SDS011;11543;43.144;24.684;2023-02-11T00:19:02;77.60;;;41.80;;
22752;SDS011;11543;43.144;24.684;2023-02-11T00:21:30;76.05;;;40.13;;
22752;SDS011;11543;43.144;24.684;2023-02-11T00:23:56;87.68;;;44.55;;
22752;SDS011;11543;43.144;24.684;2023-02-11T00:26:30;72.85;;;39.47;;
22752;SDS011;11543;43.144;24.684;2023-02-11T00:28:58;75.60;;;40.13;;
22752;SDS011;11543;43.144;24.684;2023-02-11T00:31:25;71.68;;;39.22;;
22752;SDS011;11543;43.144;24.684;2023-02-11T00:33:51;69.32;;;37.10;;
22752;SDS011;11543;43.144;24.684;2023-02-11T00:36:22;65.65;;;35.75;;
22752;SDS011;11543;43.144;24.684;2023-02-11T00:38:50;59.50;;;32.17;;
22752;SDS011;11543;43.144;24.684;2023-02-11T00:41:16;56.75;;;29.83;;
22752;SDS011;11543;43.144;24.684;2023-02-11T00:43:42;58.90;;;31.70;;
22752;SDS011;11543;43.144;24.684;2023-02-11T00:46:08;64.88;;;34.38;;
22752;SDS011;11543;43.144;24.684;2023-02-11T00:48:34;70.70;;;35.72;;
22752;SDS011;11543;43.144;24.684;2023-02-11T00:51:00;69.85;;;36.92;;
22752;SDS011;11543;43.144;24.684;2023-02-11T00:53:26;68.75;;;37.55;;
22752;SDS011;11543;43.144;24.684;2023-02-11T00:55:51;67.80;;;36.72;;
22752;SDS011;11543;43.144;24.684;2023-02-11T00:58:17;63.10;;;32.88;;
22752;SDS011;11543;43.144;24.684;2023-02-11T01:00:42;58.03;;;30.95;;
22752;SDS011;11543;43.144;24.684;2023-02-11T01:03:08;50.65;;;27.77;;
22752;SDS011;11543;43.144;24.684;2023-02-11T01:05:33;51.28;;;27.38;;
22752;SDS011;11543;43.144;24.684;2023-02-11T01:07:59;45.38;;;24.30;;
22752;SDS011;11543;43.144;24.684;2023-02-11T01:10:25;54.42;;;27.80;;
22752;SDS011;11543;43.144;24.684;2023-02-11T01:12:50;56.88;;;29.75;;
22752;SDS011;11543;43.144;24.684;2023-02-11T01:15:16;65.25;;;31.70;;
22752;SDS011;11543;43.144;24.684;2023-02-11T01:17:43;60.97;;;31.50;;
22752;SDS011;11543;43.144;24.684;2023-02-11T01:20:11;59.58;;;31.67;;
22752;SDS011;11543;43.144;24.684;2023-02-11T01:22:39;54.38;;;28.85;;
22752;SDS011;11543;43.144;24.684;2023-02-11T01:25:05;49.05;;;27.08;;
22752;SDS011;11543;43.144;24.684;2023-02-11T01:27:31;51.92;;;27.90;;
22752;SDS011;11543;43.144;24.684;2023-02-11T01:29:57;46.60;;;27.10;;
22752;SDS011;11543;43.144;24.684;2023-02-11T01:32:22;55.20;;;29.70;;
22752;SDS011;11543;43.144;24.684;2023-02-11T01:34:49;59.42;;;31.77;;
22752;SDS011;11543;43.144;24.684;2023-02-11T01:37:15;61.58;;;32.45;;
22752;SDS011;11543;43.144;24.684;2023-02-11T01:39:40;90.07;;;39.97;;
22752;SDS011;11543;43.144;24.684;2023-02-11T01:42:06;98.38;;;43.72;;
22752;SDS011;11543;43.144;24.684;2023-02-11T01:44:33;100.38;;;44.60;;
22752;SDS011;11543;43.144;24.684;2023-02-11T01:47:00;86.47;;;42.33;;
22752;SDS011;11543;43.144;24.684;2023-02-11T01:49:36;82.82;;;40.58;;
22752;SDS011;11543;43.144;24.684;2023-02-11T01:54:33;81.80;;;41.55;;
22752;SDS011;11543;43.144;24.684;2023-02-11T01:57:35;84.10;;;43.03;;
22752;SDS011;11543;43.144;24.684;2023-02-11T02:07:53;66.53;;;35.47;;
22752;SDS011;11543;43.144;24.684;2023-02-11T02:10:44;63.13;;;30.88;;
22752;SDS011;11543;43.144;24.684;2023-02-11T02:13:19;59.72;;;28.98;;
22752;SDS011;11543;43.144;24.684;2023-02-11T02:16:04;54.20;;;27.67;;
22752;SDS011;11543;43.144;24.684;2023-02-11T02:21:11;46.00;;;22.73;;
22752;SDS011;11543;43.144;24.684;2023-02-11T02:24:02;53.47;;;25.63;;
22752;SDS011;11543;43.144;24.684;2023-02-11T02:35:23;61.50;;;30.83;;
22752;SDS011;11543;43.144;24.684;2023-02-11T02:37:40;60.30;;;29.27;;
22752;SDS011;11543;43.144;24.684;2023-02-11T02:40:11;52.95;;;27.60;;
22752;SDS011;11543;43.144;24.684;2023-02-11T02:42:42;59.25;;;30.98;;
22752;SDS011;11543;43.144;24.684;2023-02-11T02:45:08;62.17;;;31.00;;
22752;SDS011;11543;43.144;24.684;2023-02-11T02:47:35;63.53;;;32.03;;
22752;SDS011;11543;43.144;24.684;2023-02-11T02:50:01;56.13;;;29.77;;
22752;SDS011;11543;43.144;24.684;2023-02-11T03:05:53;59.88;;;31.90;;
22752;SDS011;11543;43.144;24.684;2023-02-11T03:08:30;62.42;;;30.52;;
22752;SDS011;11543;43.144;24.684;2023-02-11T03:11:00;52.00;;;26.77;;
22752;SDS011;11543;43.144;24.684;2023-02-11T03:13:28;53.20;;;26.20;;
22752;SDS011;11543;43.144;24.684;2023-02-11T03:15:57;52.20;;;26.58;;
22752;SDS011;11543;43.144;24.684;2023-02-11T03:18:28;48.60;;;24.88;;
22752;SDS011;11543;43.144;24.684;2023-02-11T03:20:55;49.58;;;24.23;;
22752;SDS011;11543;43.144;24.684;2023-02-11T03:23:28;46.97;;;24.45;;
22752;SDS011;11543;43.144;24.684;2023-02-11T03:26:00;50.40;;;26.77;;
22752;SDS011;11543;43.144;24.684;2023-02-11T03:28:44;52.35;;;27.73;;
22752;SDS011;11543;43.144;24.684;2023-02-11T03:34:08;57.03;;;31.30;;
22752;SDS011;11543;43.144;24.684;2023-02-11T03:39:09;61.25;;;30.75;;
22752;SDS011;11543;43.144;24.684;2023-02-11T03:41:38;59.20;;;30.92;;
22752;SDS011;11543;43.144;24.684;2023-02-11T03:44:06;57.17;;;30.13;;
22752;SDS011;11543;43.144;24.684;2023-02-11T03:46:35;66.90;;;34.67;;
22752;SDS011;11543;43.144;24.684;2023-02-11T03:49:04;67.10;;;34.50;;
22752;SDS011;11543;43.144;24.684;2023-02-11T03:51:36;66.65;;;33.58;;
22752;SDS011;11543;43.144;24.684;2023-02-11T03:54:04;59.22;;;32.42;;
22752;SDS011;11543;43.144;24.684;2023-02-11T03:56:37;63.25;;;35.70;;
22752;SDS011;11543;43.144;24.684;2023-02-11T03:59:10;61.97;;;34.03;;
22752;SDS011;11543;43.144;24.684;2023-02-11T04:01:35;58.55;;;33.08;;
22752;SDS011;11543;43.144;24.684;2023-02-11T04:04:01;56.22;;;29.33;;
22752;SDS011;11543;43.144;24.684;2023-02-11T04:06:26;57.17;;;30.05;;
22752;SDS011;11543;43.144;24.684;2023-02-11T04:08:52;48.40;;;27.27;;
22752;SDS011;11543;43.144;24.684;2023-02-11T04:11:17;55.47;;;28.52;;
22752;SDS011;11543;43.144;24.684;2023-02-11T04:13:42;57.15;;;31.48;;
22752;SDS011;11543;43.144;24.684;2023-02-11T04:16:08;63.00;;;32.42;;
22752;SDS011;11543;43.144;24.684;2023-02-11T04:18:33;67.50;;;32.90;;
22752;SDS011;11543;43.144;24.684;2023-02-11T04:20:59;60.65;;;31.25;;
22752;SDS011;11543;43.144;24.684;2023-02-11T04:23:24;53.92;;;28.92;;
22752;SDS011;11543;43.144;24.684;2023-02-11T04:25:50;62.65;;;32.22;;
22752;SDS011;11543;43.144;24.684;2023-02-11T04:28:15;60.85;;;32.92;;
22752;SDS011;11543;43.144;24.684;2023-02-11T04:30:41;61.15;;;31.77;;
22752;SDS011;11543;43.144;24.684;2023-02-11T04:33:06;56.85;;;29.50;;
22752;SDS011;11543;43.144;24.684;2023-02-11T04:35:31;78.68;;;38.80;;
22752;SDS011;11543;43.144;24.684;2023-02-11T04:37:57;110.97;;;53.03;;
22752;SDS011;11543;43.144;24.684;2023-02-11T04:40:22;124.00;;;58.95;;
22752;SDS011;11543;43.144;24.684;2023-02-11T04:42:48;112.57;;;54.70;;
22752;SDS011;11543;43.144;24.684;2023-02-11T04:45:13;100.80;;;48.58;;
22752;SDS011;11543;43.144;24.684;2023-02-11T04:47:39;78.03;;;39.67;;
22752;SDS011;11543;43.144;24.684;2023-02-11T04:50:04;72.72;;;38.65;;
22752;SDS011;11543;43.144;24.684;2023-02-11T04:52:30;67.55;;;37.20;;
22752;SDS011;11543;43.144;24.684;2023-02-11T04:54:55;75.75;;;39.00;;
22752;SDS011;11543;43.144;24.684;2023-02-11T04:57:21;59.63;;;31.83;;
22752;SDS011;11543;43.144;24.684;2023-02-11T04:59:46;48.90;;;27.88;;
22752;SDS011;11543;43.144;24.684;2023-02-11T05:02:13;63.42;;;33.42;;
22752;SDS011;11543;43.144;24.684;2023-02-11T05:04:38;75.63;;;40.72;;
22752;SDS011;11543;43.144;24.684;2023-02-11T05:07:03;72.15;;;38.20;;
22752;SDS011;11543;43.144;24.684;2023-02-11T05:09:29;62.22;;;33.33;;
22752;SDS011;11543;43.144;24.684;2023-02-11T05:11:54;77.18;;;37.08;;
22752;SDS011;11543;43.144;24.684;2023-02-11T05:14:20;69.70;;;36.83;;
22752;SDS011;11543;43.144;24.684;2023-02-11T05:16:45;78.03;;;40.05;;
22752;SDS011;11543;43.144;24.684;2023-02-11T05:19:11;75.10;;;39.83;;
22752;SDS011;11543;43.144;24.684;2023-02-11T05:21:36;73.18;;;37.20;;
22752;SDS011;11543;43.144;24.684;2023-02-11T05:24:02;70.50;;;39.42;;
22752;SDS011;11543;43.144;24.684;2023-02-11T05:26:27;69.57;;;39.03;;
22752;SDS011;11543;43.144;24.684;2023-02-11T05:28:53;89.88;;;45.90;;
22752;SDS011;11543;43.144;24.684;2023-02-11T05:31:18;80.95;;;43.10;;
22752;SDS011;11543;43.144;24.684;2023-02-11T05:33:45;72.68;;;41.28;;
22752;SDS011;11543;43.144;24.684;2023-02-11T05:36:11;90.40;;;49.70;;
22752;SDS011;11543;43.144;24.684;2023-02-11T05:38:37;83.03;;;44.28;;
22752;SDS011;11543;43.144;24.684;2023-02-11T05:41:03;122.55;;;62.97;;
22752;SDS011;11543;43.144;24.684;2023-02-11T05:43:30;98.07;;;48.15;;
22752;SDS011;11543;43.144;24.684;2023-02-11T05:45:59;76.75;;;41.28;;
22752;SDS011;11543;43.144;24.684;2023-02-11T05:48:24;78.40;;;43.10;;
22752;SDS011;11543;43.144;24.684;2023-02-11T05:50:50;74.00;;;42.95;;
22752;SDS011;11543;43.144;24.684;2023-02-11T05:53:15;66.90;;;38.97;;
22752;SDS011;11543;43.144;24.684;2023-02-11T05:55:41;62.97;;;37.10;;
22752;SDS011;11543;43.144;24.684;2023-02-11T05:58:06;65.55;;;35.70;;
22752;SDS011;11543;43.144;24.684;2023-02-11T06:00:33;92.97;;;46.22;;
22752;SDS011;11543;43.144;24.684;2023-02-11T06:02:59;263.65;;;115.38;;
22752;SDS011;11543;43.144;24.684;2023-02-11T06:05:24;219.45;;;100.57;;
22752;SDS011;11543;43.144;24.684;2023-02-11T06:07:50;171.10;;;78.70;;
22752;SDS011;11543;43.144;24.684;2023-02-11T06:10:17;130.25;;;63.45;;
22752;SDS011;11543;43.144;24.684;2023-02-11T06:12:47;119.82;;;61.95;;
22752;SDS011;11543;43.144;24.684;2023-02-11T06:15:12;177.10;;;84.32;;
22752;SDS011;11543;43.144;24.684;2023-02-11T06:17:38;127.63;;;66.72;;
22752;SDS011;11543;43.144;24.684;2023-02-11T06:20:05;152.77;;;76.13;;
22752;SDS011;11543;43.144;24.684;2023-02-11T06:22:32;142.68;;;69.07;;
22752;SDS011;11543;43.144;24.684;2023-02-11T06:25:00;121.65;;;63.92;;
22752;SDS011;11543;43.144;24.684;2023-02-11T06:27:26;119.28;;;59.30;;
22752;SDS011;11543;43.144;24.684;2023-02-11T06:29:52;106.78;;;55.42;;
22752;SDS011;11543;43.144;24.684;2023-02-11T06:32:19;104.43;;;55.50;;
22752;SDS011;11543;43.144;24.684;2023-02-11T06:34:46;133.93;;;66.45;;
22752;SDS011;11543;43.144;24.684;2023-02-11T06:37:11;117.55;;;61.78;;
22752;SDS011;11543;43.144;24.684;2023-02-11T06:39:37;110.43;;;55.20;;
22752;SDS011;11543;43.144;24.684;2023-02-11T06:42:05;98.85;;;51.00;;
22752;SDS011;11543;43.144;24.684;2023-02-11T06:44:31;85.25;;;45.58;;
22752;SDS011;11543;43.144;24.684;2023-02-11T06:46:56;90.63;;;43.95;;
22752;SDS011;11543;43.144;24.684;2023-02-11T06:49:22;80.63;;;40.00;;
22752;SDS011;11543;43.144;24.684;2023-02-11T06:51:53;74.32;;;36.78;;
22752;SDS011;11543;43.144;24.684;2023-02-11T06:54:19;69.90;;;37.53;;
22752;SDS011;11543;43.144;24.684;2023-02-11T06:56:45;70.18;;;36.53;;
22752;SDS011;11543;43.144;24.684;2023-02-11T06:59:14;72.30;;;38.08;;
22752;SDS011;11543;43.144;24.684;2023-02-11T07:01:43;66.13;;;35.40;;
22752;SDS011;11543;43.144;24.684;2023-02-11T07:04:16;68.22;;;36.45;;
22752;SDS011;11543;43.144;24.684;2023-02-11T07:06:42;66.25;;;37.22;;
22752;SDS011;11543;43.144;24.684;2023-02-11T07:09:07;56.85;;;33.60;;
22752;SDS011;11543;43.144;24.684;2023-02-11T07:11:33;64.35;;;35.10;;
22752;SDS011;11543;43.144;24.684;2023-02-11T07:14:00;64.75;;;35.90;;
22752;SDS011;11543;43.144;24.684;2023-02-11T07:16:30;67.68;;;36.60;;
22752;SDS011;11543;43.144;24.684;2023-02-11T07:18:56;72.32;;;37.35;;
22752;SDS011;11543;43.144;24.684;2023-02-11T07:21:22;70.25;;;39.00;;
22752;SDS011;11543;43.144;24.684;2023-02-11T07:23:51;70.53;;;38.92;;
22752;SDS011;11543;43.144;24.684;2023-02-11T07:26:18;76.95;;;40.42;;
22752;SDS011;11543;43.144;24.684;2023-02-11T07:28:50;74.38;;;39.53;;
22752;SDS011;11543;43.144;24.684;2023-02-11T07:31:17;70.18;;;38.65;;
22752;SDS011;11543;43.144;24.684;2023-02-11T07:33:50;73.22;;;37.90;;
22752;SDS011;11543;43.144;24.684;2023-02-11T07:36:18;63.38;;;34.70;;
22752;SDS011;11543;43.144;24.684;2023-02-11T07:38:43;67.20;;;34.35;;
22752;SDS011;11543;43.144;24.684;2023-02-11T07:41:10;60.30;;;33.33;;
22752;SDS011;11543;43.144;24.684;2023-02-11T07:43:38;65.13;;;34.50;;
22752;SDS011;11543;43.144;24.684;2023-02-11T07:46:04;67.07;;;34.33;;
22752;SDS011;11543;43.144;24.684;2023-02-11T07:48:35;65.97;;;33.53;;
22752;SDS011;11543;43.144;24.684;2023-02-11T07:51:04;58.05;;;31.90;;
22752;SDS011;11543;43.144;24.684;2023-02-11T07:53:34;60.15;;;31.13;;
22752;SDS011;11543;43.144;24.684;2023-02-11T07:56:01;57.22;;;32.75;;
22752;SDS011;11543;43.144;24.684;2023-02-11T07:58:27;66.90;;;31.85;;
22752;SDS011;11543;43.144;24.684;2023-02-11T08:00:53;52.35;;;31.08;;
22752;SDS011;11543;43.144;24.684;2023-02-11T08:03:18;61.50;;;31.70;;
22752;SDS011;11543;43.144;24.684;2023-02-11T08:05:44;62.22;;;34.47;;
22752;SDS011;11543;43.144;24.684;2023-02-11T08:08:09;65.60;;;36.65;;
22752;SDS011;11543;43.144;24.684;2023-02-11T08:10:35;71.05;;;37.50;;
22752;SDS011;11543;43.144;24.684;2023-02-11T08:13:01;71.32;;;38.20;;
22752;SDS011;11543;43.144;24.684;2023-02-11T08:15:34;61.05;;;33.08;;
22752;SDS011;11543;43.144;24.684;2023-02-11T08:18:00;62.75;;;32.30;;
22752;SDS011;11543;43.144;24.684;2023-02-11T08:20:26;56.30;;;30.88;;
22752;SDS011;11543;43.144;24.684;2023-02-11T08:22:51;59.50;;;33.30;;
22752;SDS011;11543;43.144;24.684;2023-02-11T08:25:16;63.45;;;33.10;;
22752;SDS011;11543;43.144;24.684;2023-02-11T08:27:42;53.00;;;30.30;;
22752;SDS011;11543;43.144;24.684;2023-02-11T08:30:08;54.22;;;30.13;;
22752;SDS011;11543;43.144;24.684;2023-02-11T08:32:34;52.50;;;30.00;;
22752;SDS011;11543;43.144;24.684;2023-02-11T08:34:59;54.17;;;31.25;;
22752;SDS011;11543;43.144;24.684;2023-02-11T08:37:25;54.35;;;30.23;;
22752;SDS011;11543;43.144;24.684;2023-02-11T08:39:50;60.95;;;32.83;;
22752;SDS011;11543;43.144;24.684;2023-02-11T08:42:16;56.30;;;32.35;;
22752;SDS011;11543;43.144;24.684;2023-02-11T08:44:42;63.80;;;35.22;;
22752;SDS011;11543;43.144;24.684;2023-02-11T08:47:07;62.92;;;35.30;;
22752;SDS011;11543;43.144;24.684;2023-02-11T08:49:33;62.95;;;35.10;;
22752;SDS011;11543;43.144;24.684;2023-02-11T08:51:59;58.22;;;34.03;;
22752;SDS011;11543;43.144;24.684;2023-02-11T08:54:28;65.55;;;36.63;;
22752;SDS011;11543;43.144;24.684;2023-02-11T08:56:56;77.10;;;43.03;;
22752;SDS011;11543;43.144;24.684;2023-02-11T08:59:22;84.03;;;43.40;;
22752;SDS011;11543;43.144;24.684;2023-02-11T09:01:49;77.80;;;43.25;;
22752;SDS011;11543;43.144;24.684;2023-02-11T09:04:15;91.47;;;47.95;;
22752;SDS011;11543;43.144;24.684;2023-02-11T09:06:41;85.60;;;44.78;;
22752;SDS011;11543;43.144;24.684;2023-02-11T09:09:09;71.68;;;41.25;;
22752;SDS011;11543;43.144;24.684;2023-02-11T09:11:40;65.18;;;34.97;;
22752;SDS011;11543;43.144;24.684;2023-02-11T09:14:17;56.50;;;30.98;;
22752;SDS011;11543;43.144;24.684;2023-02-11T09:16:46;53.45;;;31.40;;
22752;SDS011;11543;43.144;24.684;2023-02-11T09:19:12;41.13;;;23.95;;
22752;SDS011;11543;43.144;24.684;2023-02-11T09:21:37;48.95;;;29.65;;
22752;SDS011;11543;43.144;24.684;2023-02-11T09:24:03;46.92;;;25.23;;
22752;SDS011;11543;43.144;24.684;2023-02-11T09:26:31;48.58;;;26.27;;
22752;SDS011;11543;43.144;24.684;2023-02-11T09:29:01;39.95;;;24.17;;
22752;SDS011;11543;43.144;24.684;2023-02-11T09:31:27;29.02;;;16.08;;
22752;SDS011;11543;43.144;24.684;2023-02-11T09:33:56;15.63;;;7.95;;
22752;SDS011;11543;43.144;24.684;2023-02-11T09:36:24;11.48;;;6.97;;
22752;SDS011;11543;43.144;24.684;2023-02-11T09:38:52;12.30;;;6.65;;
22752;SDS011;11543;43.144;24.684;2023-02-11T09:43:57;15.20;;;7.43;;
22752;SDS011;11543;43.144;24.684;2023-02-11T09:46:28;14.30;;;7.40;;
22752;SDS011;11543;43.144;24.684;2023-02-11T09:48:56;12.63;;;7.32;;
22752;SDS011;11543;43.144;24.684;2023-02-11T09:54:06;16.40;;;8.88;;
22752;SDS011;11543;43.144;24.684;2023-02-11T09:56:41;18.67;;;9.98;;
22752;SDS011;11543;43.144;24.684;2023-02-11T09:59:09;16.90;;;8.45;;
22752;SDS011;11543;43.144;24.684;2023-02-11T10:04:49;12.25;;;;;
22752;SDS011;11543;43.144;24.684;2023-02-11T10:07:47;12.73;;;7.07;;
22752;SDS011;11543;43.144;24.684;2023-02-11T10:10:29;13.50;;;7.43;;
22752;SDS011;11543;43.144;24.684;2023-02-11T10:24:36;13.27;;;7.25;;
22752;SDS011;11543;43.144;24.684;2023-02-11T10:27:16;13.45;;;7.30;;
22752;SDS011;11543;43.144;24.684;2023-02-11T10:29:54;12.30;;;6.88;;
22752;SDS011;11543;43.144;24.684;2023-02-11T10:32:29;13.25;;;7.07;;
22752;SDS011;11543;43.144;24.684;2023-02-11T10:35:09;12.85;;;7.35;;
22752;SDS011;11543;43.144;24.684;2023-02-11T10:37:40;12.82;;;6.57;;
22752;SDS011;11543;43.144;24.684;2023-02-11T10:40:12;12.80;;;6.38;;
22752;SDS011;11543;43.144;24.684;2023-02-11T10:42:45;14.90;;;7.28;;
22752;SDS011;11543;43.144;24.684;2023-02-11T10:45:18;13.80;;;6.85;;
22752;SDS011;11543;43.144;24.684;2023-02-11T10:48:34;10.15;;;6.38;;
22752;SDS011;11543;43.144;24.684;2023-02-11T10:51:06;12.75;;;7.05;;
22752;SDS011;11543;43.144;24.684;2023-02-11T10:53:38;10.85;;;6.25;;
22752;SDS011;11543;43.144;24.684;2023-02-11T10:56:04;14.20;;;7.30;;
22752;SDS011;11543;43.144;24.684;2023-02-11T11:01:10;20.02;;;9.50;;
22752;SDS011;11543;43.144;24.684;2023-02-11T11:03:38;12.50;;;7.25;;
22752;SDS011;11543;43.144;24.684;2023-02-11T11:06:09;11.75;;;6.45;;
22752;SDS011;11543;43.144;24.684;2023-02-11T11:11:13;11.15;;;6.20;;
22752;SDS011;11543;43.144;24.684;2023-02-11T11:14:03;12.82;;;7.13;;
22752;SDS011;11543;43.144;24.684;2023-02-11T11:16:31;11.30;;;6.65;;
22752;SDS011;11543;43.144;24.684;2023-02-11T11:21:35;12.55;;;6.78;;
22752;SDS011;11543;43.144;24.684;2023-02-11T11:24:13;11.75;;;6.38;;
22752;SDS011;11543;43.144;24.684;2023-02-11T11:27:04;9.52;;;5.75;;
22752;SDS011;11543;43.144;24.684;2023-02-11T11:32:28;11.57;;;5.35;;
22752;SDS011;11543;43.144;24.684;2023-02-11T11:35:01;10.38;;;5.68;;
22752;SDS011;11543;43.144;24.684;2023-02-11T11:37:32;11.15;;;6.00;;
22752;SDS011;11543;43.144;24.684;2023-02-11T11:42:34;9.48;;;5.00;;
22752;SDS011;11543;43.144;24.684;2023-02-11T11:45:02;9.60;;;5.60;;
22752;SDS011;11543;43.144;24.684;2023-02-11T11:50:55;11.02;;;5.97;;
22752;SDS011;11543;43.144;24.684;2023-02-11T11:58:38;13.45;;;5.90;;
22752;SDS011;11543;43.144;24.684;2023-02-11T12:01:08;11.73;;;5.97;;
22752;SDS011;11543;43.144;24.684;2023-02-11T12:09:00;10.07;;;5.95;;
22752;SDS011;11543;43.144;24.684;2023-02-11T12:26:19;10.45;;;6.10;;
22752;SDS011;11543;43.144;24.684;2023-02-11T13:02:20;11.63;;;6.55;;
22752;SDS011;11543;43.144;24.684;2023-02-11T13:04:53;14.48;;;6.90;;
22752;SDS011;11543;43.144;24.684;2023-02-11T13:07:27;14.25;;;8.48;;
22752;SDS011;11543;43.144;24.684;2023-02-11T13:10:01;12.30;;;6.80;;
22752;SDS011;11543;43.144;24.684;2023-02-11T13:12:33;17.13;;;8.13;;
22752;SDS011;11543;43.144;24.684;2023-02-11T13:15:19;13.27;;;7.07;;
22752;SDS011;11543;43.144;24.684;2023-02-11T13:17:50;10.68;;;6.70;;
22752;SDS011;11543;43.144;24.684;2023-02-11T13:26:46;11.07;;;6.22;;
22752;SDS011;11543;43.144;24.684;2023-02-11T13:29:01;11.13;;;6.78;;
22752;SDS011;11543;43.144;24.684;2023-02-11T13:31:53;12.88;;;6.85;;
22752;SDS011;11543;43.144;24.684;2023-02-11T13:37:21;18.40;;;9.20;;
22752;SDS011;11543;43.144;24.684;2023-02-11T13:42:31;13.77;;;8.00;;
22752;SDS011;11543;43.144;24.684;2023-02-11T13:45:23;11.65;;;6.93;;
22752;SDS011;11543;43.144;24.684;2023-02-11T13:50:36;10.85;;;6.50;;
22752;SDS011;11543;43.144;24.684;2023-02-11T13:53:04;11.15;;;6.47;;
22752;SDS011;11543;43.144;24.684;2023-02-11T13:55:33;13.25;;;7.57;;
22752;SDS011;11543;43.144;24.684;2023-02-11T14:19:33;15.43;;;9.10;;
22752;SDS011;11543;43.144;24.684;2023-02-11T14:22:05;16.60;;;9.93;;
22752;SDS011;11543;43.144;24.684;2023-02-11T14:41:19;17.30;;;10.05;;
22752;SDS011;11543;43.144;24.684;2023-02-11T14:44:00;19.15;;;10.25;;
22752;SDS011;11543;43.144;24.684;2023-02-11T14:46:30;17.65;;;10.27;;
22752;SDS011;11543;43.144;24.684;2023-02-11T14:49:01;18.25;;;10.48;;
22752;SDS011;11543;43.144;24.684;2023-02-11T14:51:37;18.08;;;9.98;;
22752;SDS011;11543;43.144;24.684;2023-02-11T14:54:11;22.25;;;11.68;;
22752;SDS011;11543;43.144;24.684;2023-02-11T14:56:41;27.13;;;13.23;;
22752;SDS011;11543;43.144;24.684;2023-02-11T14:59:28;20.92;;;11.65;;
22752;SDS011;11543;43.144;24.684;2023-02-11T15:01:54;19.38;;;11.20;;
22752;SDS011;11543;43.144;24.684;2023-02-11T15:06:48;21.85;;;12.02;;
22752;SDS011;11543;43.144;24.684;2023-02-11T15:09:15;23.40;;;12.80;;
22752;SDS011;11543;43.144;24.684;2023-02-11T15:11:45;23.65;;;13.20;;
22752;SDS011;11543;43.144;24.684;2023-02-11T15:14:28;26.05;;;15.88;;
22752;SDS011;11543;43.144;24.684;2023-02-11T15:19:29;19.48;;;11.52;;
22752;SDS011;11543;43.144;24.684;2023-02-11T15:21:59;24.50;;;13.65;;
22752;SDS011;11543;43.144;24.684;2023-02-11T15:24:30;23.30;;;13.55;;
22752;SDS011;11543;43.144;24.684;2023-02-11T15:32:20;19.95;;;11.95;;
22752;SDS011;11543;43.144;24.684;2023-02-11T15:34:49;23.00;;;12.88;;
22752;SDS011;11543;43.144;24.684;2023-02-11T15:37:23;24.15;;;13.13;;
22752;SDS011;11543;43.144;24.684;2023-02-11T15:39:53;21.52;;;13.27;;
22752;SDS011;11543;43.144;24.684;2023-02-11T15:42:31;23.25;;;12.77;;
22752;SDS011;11543;43.144;24.684;2023-02-11T15:45:07;23.15;;;14.18;;
22752;SDS011;11543;43.144;24.684;2023-02-11T15:47:33;24.42;;;14.20;;
22752;SDS011;11543;43.144;24.684;2023-02-11T15:49:59;31.08;;;19.27;;
22752;SDS011;11543;43.144;24.684;2023-02-11T15:52:25;44.13;;;28.42;;
22752;SDS011;11543;43.144;24.684;2023-02-11T15:54:52;78.80;;;39.88;;
22752;SDS011;11543;43.144;24.684;2023-02-11T15:57:23;40.13;;;21.55;;
22752;SDS011;11543;43.144;24.684;2023-02-11T15:59:49;49.20;;;26.42;;
22752;SDS011;11543;43.144;24.684;2023-02-11T16:02:28;50.10;;;30.08;;
22752;SDS011;11543;43.144;24.684;2023-02-11T16:04:58;57.33;;;35.10;;
22752;SDS011;11543;43.144;24.684;2023-02-11T16:10:20;77.03;;;47.03;;
22752;SDS011;11543;43.144;24.684;2023-02-11T16:12:54;71.82;;;41.35;;
22752;SDS011;11543;43.144;24.684;2023-02-11T16:15:28;46.35;;;28.05;;
22752;SDS011;11543;43.144;24.684;2023-02-11T16:17:57;49.75;;;29.42;;
22752;SDS011;11543;43.144;24.684;2023-02-11T16:20:22;55.55;;;34.95;;
22752;SDS011;11543;43.144;24.684;2023-02-11T16:22:50;53.03;;;31.45;;
22752;SDS011;11543;43.144;24.684;2023-02-11T16:25:16;50.55;;;31.67;;
22752;SDS011;11543;43.144;24.684;2023-02-11T16:27:46;53.40;;;29.80;;
22752;SDS011;11543;43.144;24.684;2023-02-11T16:33:04;59.50;;;31.52;;
22752;SDS011;11543;43.144;24.684;2023-02-11T16:35:30;50.08;;;28.58;;
22752;SDS011;11543;43.144;24.684;2023-02-11T16:37:56;41.60;;;25.83;;
22752;SDS011;11543;43.144;24.684;2023-02-11T16:40:21;47.97;;;28.70;;
22752;SDS011;11543;43.144;24.684;2023-02-11T16:42:48;48.78;;;29.75;;
22752;SDS011;11543;43.144;24.684;2023-02-11T16:45:14;53.20;;;32.63;;
22752;SDS011;11543;43.144;24.684;2023-02-11T16:47:40;54.83;;;31.13;;
22752;SDS011;11543;43.144;24.684;2023-02-11T16:50:07;50.88;;;30.00;;
22752;SDS011;11543;43.144;24.684;2023-02-11T16:52:35;56.72;;;32.13;;
22752;SDS011;11543;43.144;24.684;2023-02-11T16:55:02;58.35;;;34.30;;
22752;SDS011;11543;43.144;24.684;2023-02-11T16:57:29;52.72;;;29.42;;
22752;SDS011;11543;43.144;24.684;2023-02-11T16:59:55;65.55;;;32.83;;
22752;SDS011;11543;43.144;24.684;2023-02-11T17:02:23;59.80;;;33.95;;
22752;SDS011;11543;43.144;24.684;2023-02-11T17:04:54;63.88;;;35.95;;
22752;SDS011;11543;43.144;24.684;2023-02-11T17:07:24;59.50;;;34.42;;
22752;SDS011;11543;43.144;24.684;2023-02-11T17:09:49;47.45;;;29.67;;
22752;SDS011;11543;43.144;24.684;2023-02-11T17:12:17;48.95;;;30.50;;
22752;SDS011;11543;43.144;24.684;2023-02-11T17:14:43;49.67;;;30.42;;
22752;SDS011;11543;43.144;24.684;2023-02-11T17:17:09;52.47;;;32.25;;
22752;SDS011;11543;43.144;24.684;2023-02-11T17:19:35;136.23;;;66.25;;
22752;SDS011;11543;43.144;24.684;2023-02-11T17:22:00;182.27;;;83.00;;
22752;SDS011;11543;43.144;24.684;2023-02-11T17:24:26;124.90;;;60.42;;
22752;SDS011;11543;43.144;24.684;2023-02-11T17:26:51;108.82;;;56.00;;
22752;SDS011;11543;43.144;24.684;2023-02-11T17:29:18;110.00;;;57.58;;
22752;SDS011;11543;43.144;24.684;2023-02-11T17:31:46;148.23;;;73.20;;
22752;SDS011;11543;43.144;24.684;2023-02-11T17:34:14;163.82;;;82.93;;
22752;SDS011;11543;43.144;24.684;2023-02-11T17:36:40;220.18;;;111.60;;
22752;SDS011;11543;43.144;24.684;2023-02-11T17:39:06;219.35;;;111.50;;
22752;SDS011;11543;43.144;24.684;2023-02-11T17:41:32;209.95;;;117.80;;
22752;SDS011;11543;43.144;24.684;2023-02-11T17:43:59;193.23;;;106.93;;
22752;SDS011;11543;43.144;24.684;2023-02-11T17:46:25;194.25;;;105.75;;